createdAt,value
2023-09-23T00:00:48.980Z,22.50
2023-09-23T00:03:15.781Z,22.49
2023-09-23T00:05:42.517Z,22.41
2023-09-23T00:08:09.726Z,22.40
2023-09-23T00:10:37.155Z,22.11
2023-09-23T00:13:04.060Z,21.98
2023-09-23T00:15:31.695Z,21.94
2023-09-23T00:17:58.928Z,21.99
2023-09-23T00:20:28.515Z,21.79
2023-09-23T00:22:56.472Z,21.73
2023-09-23T00:25:24.783Z,21.81
2023-09-23T00:27:55.627Z,21.88
2023-09-23T00:30:24.521Z,21.86
2023-09-23T00:32:51.493Z,21.89
2023-09-23T00:35:20.150Z,21.89
2023-09-23T00:37:49.596Z,21.90
2023-09-23T00:40:28.673Z,21.87
2023-09-23T00:43:10.039Z,21.80
2023-09-23T00:45:37.313Z,21.58
2023-09-23T00:48:09.493Z,21.15
2023-09-23T00:50:36.379Z,21.20
2023-09-23T00:53:06.039Z,21.07
2023-09-23T00:55:40.693Z,20.48
2023-09-23T00:58:08.592Z,20.28
2023-09-23T01:00:37.464Z,20.38
2023-09-23T01:03:04.428Z,20.52
2023-09-23T01:05:32.018Z,20.83
2023-09-23T01:08:05.764Z,21.04
2023-09-23T01:10:32.835Z,21.14
2023-09-23T01:13:00.460Z,21.19
2023-09-23T01:15:29.826Z,21.24
2023-09-23T01:17:58.271Z,21.05
2023-09-23T01:20:26.871Z,21.00
2023-09-23T01:22:56.061Z,21.13
2023-09-23T01:25:23.963Z,21.14
2023-09-23T01:27:50.785Z,21.20
2023-09-23T01:30:17.748Z,21.22
2023-09-23T01:32:49.331Z,21.27
2023-09-23T01:35:18.009Z,21.27
2023-09-23T01:37:47.944Z,21.28
2023-09-23T01:40:19.399Z,20.81
2023-09-23T01:42:50.127Z,20.70
2023-09-23T01:45:18.220Z,20.94
2023-09-23T01:47:45.458Z,20.85
2023-09-23T01:50:14.425Z,20.92
2023-09-23T01:52:44.606Z,20.85
2023-09-23T01:55:14.251Z,20.11
2023-09-23T01:57:41.103Z,20.03
2023-09-23T02:00:11.463Z,20.02
2023-09-23T02:02:43.324Z,20.35
2023-09-23T02:05:10.378Z,20.33
2023-09-23T02:07:37.125Z,20.21
2023-09-23T02:10:04.721Z,20.42
2023-09-23T02:12:33.324Z,20.52
2023-09-23T02:15:00.171Z,20.46
2023-09-23T02:17:27.142Z,20.33
2023-09-23T02:19:55.095Z,20.43
2023-09-23T02:22:21.992Z,20.43
2023-09-23T02:24:48.812Z,20.53
2023-09-23T02:27:15.687Z,20.79
2023-09-23T02:29:43.969Z,20.96
2023-09-23T02:32:10.801Z,20.99
2023-09-23T02:34:38.145Z,21.08
2023-09-23T02:37:05.798Z,21.03
2023-09-23T02:39:32.978Z,20.98
2023-09-23T02:42:01.274Z,20.47
2023-09-23T02:44:31.269Z,20.17
2023-09-23T02:46:58.310Z,20.13
2023-09-23T02:49:25.250Z,20.30
2023-09-23T02:51:52.015Z,20.21
2023-09-23T02:54:18.810Z,19.98
2023-09-23T02:56:49.105Z,20.12
2023-09-23T02:59:17.350Z,20.11
2023-09-23T03:01:52.688Z,20.21
2023-09-23T03:04:26.512Z,20.01
2023-09-23T03:07:02.829Z,19.91
2023-09-23T03:09:33.743Z,19.77
2023-09-23T03:12:02.162Z,19.86
2023-09-23T03:14:44.140Z,20.14
2023-09-23T03:17:14.090Z,20.31
2023-09-23T03:19:40.942Z,20.40
2023-09-23T03:22:09.083Z,20.37
2023-09-23T03:24:36.255Z,20.44
2023-09-23T03:27:03.291Z,20.55
2023-09-23T03:29:31.594Z,20.65
2023-09-23T03:32:00.249Z,20.60
2023-09-23T03:34:30.776Z,20.56
2023-09-23T03:36:59.563Z,20.58
2023-09-23T03:39:38.520Z,20.59
2023-09-23T03:42:05.404Z,20.69
2023-09-23T03:44:32.259Z,20.76
2023-09-23T03:47:01.298Z,20.85
2023-09-23T03:49:29.679Z,20.83
2023-09-23T03:51:57.032Z,20.66
2023-09-23T03:54:25.256Z,20.50
2023-09-23T03:56:52.065Z,20.63
2023-09-23T03:59:18.834Z,20.77
2023-09-23T04:01:46.969Z,20.92
2023-09-23T04:04:13.986Z,20.77
2023-09-23T04:06:40.767Z,20.86
2023-09-23T04:09:08.656Z,21.09
2023-09-23T04:11:36.425Z,21.13
2023-09-23T04:14:03.215Z,21.20
2023-09-23T04:16:32.912Z,21.02
2023-09-23T04:19:00.196Z,20.94
2023-09-23T04:21:27.127Z,21.04
2023-09-23T04:23:53.716Z,21.08
2023-09-23T04:26:25.517Z,21.03
2023-09-23T04:28:53.439Z,21.05
2023-09-23T04:31:20.828Z,21.05
2023-09-23T04:33:48.720Z,20.98
2023-09-23T04:36:16.037Z,20.92
2023-09-23T04:38:44.868Z,20.88
2023-09-23T04:41:12.072Z,20.90
2023-09-23T04:43:43.923Z,20.88
2023-09-23T04:46:15.934Z,20.83
2023-09-23T04:48:44.668Z,20.79
2023-09-23T04:51:11.603Z,20.68
2023-09-23T04:53:38.416Z,20.74
2023-09-23T04:56:11.473Z,20.71
2023-09-23T04:58:38.532Z,20.56
2023-09-23T05:01:09.161Z,20.52
2023-09-23T05:03:38.039Z,20.45
2023-09-23T05:06:07.021Z,20.19
2023-09-23T05:08:33.901Z,19.80
2023-09-23T05:11:01.782Z,19.57
2023-09-23T05:13:30.086Z,19.58
2023-09-23T05:15:56.925Z,19.38
2023-09-23T05:18:24.742Z,19.28
2023-09-23T05:20:51.504Z,19.46
2023-09-23T05:23:18.368Z,19.11
2023-09-23T05:25:46.361Z,19.00
2023-09-23T05:28:13.227Z,18.92
2023-09-23T05:30:40.169Z,18.99
2023-09-23T05:33:07.220Z,18.94
2023-09-23T05:35:33.897Z,18.92
2023-09-23T05:38:01.129Z,18.96
2023-09-23T05:40:28.059Z,18.91
2023-09-23T05:42:55.364Z,18.97
2023-09-23T05:45:25.751Z,18.69
2023-09-23T05:47:53.651Z,18.63
2023-09-23T05:50:22.352Z,18.57
2023-09-23T05:52:50.025Z,18.49
2023-09-23T05:55:17.173Z,18.43
2023-09-23T05:57:44.028Z,18.32
2023-09-23T06:00:13.431Z,18.45
2023-09-23T06:02:40.583Z,18.51
2023-09-23T06:05:08.053Z,18.49
2023-09-23T06:07:35.055Z,18.68
2023-09-23T06:10:01.850Z,18.90
2023-09-23T06:12:30.729Z,19.11
2023-09-23T06:15:05.234Z,19.08
2023-09-23T06:17:33.972Z,19.26
2023-09-23T06:20:01.291Z,19.34
2023-09-23T06:22:28.860Z,19.22
2023-09-23T06:24:56.679Z,19.22
2023-09-23T06:27:23.503Z,19.35
2023-09-23T06:29:50.885Z,19.22
2023-09-23T06:32:18.012Z,19.21
2023-09-23T06:34:45.749Z,19.15
2023-09-23T06:37:12.645Z,18.99
2023-09-23T06:39:39.624Z,18.87
2023-09-23T06:42:07.163Z,18.59
2023-09-23T06:44:34.346Z,18.35
2023-09-23T06:47:05.070Z,18.52
2023-09-23T06:49:32.072Z,18.75
2023-09-23T06:51:58.890Z,18.83
2023-09-23T06:54:26.334Z,19.06
2023-09-23T06:56:56.955Z,19.17
2023-09-23T06:59:24.115Z,19.08
2023-09-23T07:01:51.036Z,18.99
2023-09-23T07:04:18.004Z,18.97
2023-09-23T07:06:45.299Z,19.00
2023-09-23T07:09:12.236Z,18.90
2023-09-23T07:11:39.631Z,18.86
2023-09-23T07:14:07.400Z,19.01
2023-09-23T07:16:37.431Z,18.91
2023-09-23T07:19:04.535Z,18.97
2023-09-23T07:21:31.255Z,19.04
2023-09-23T07:23:59.298Z,19.05
2023-09-23T07:26:26.246Z,18.94
2023-09-23T07:28:54.179Z,19.05
2023-09-23T07:31:21.072Z,19.16
2023-09-23T07:33:48.148Z,19.26
2023-09-23T07:36:15.659Z,19.29
2023-09-23T07:38:42.703Z,19.22
2023-09-23T07:41:09.387Z,19.39
2023-09-23T07:43:36.247Z,19.49
2023-09-23T07:46:03.082Z,19.51
2023-09-23T07:48:29.820Z,19.37
2023-09-23T07:50:56.626Z,19.51
2023-09-23T07:53:23.461Z,19.44
2023-09-23T07:55:50.619Z,19.42
2023-09-23T07:58:17.462Z,19.44
2023-09-23T08:00:44.448Z,19.13
2023-09-23T08:03:11.107Z,18.89
2023-09-23T08:05:38.036Z,18.46
2023-09-23T08:08:05.213Z,18.22
2023-09-23T08:10:34.699Z,18.41
2023-09-23T08:13:04.072Z,18.46
2023-09-23T08:15:31.729Z,18.15
2023-09-23T08:17:59.721Z,17.86
2023-09-23T08:20:28.455Z,17.94
2023-09-23T08:22:58.622Z,17.68
2023-09-23T08:25:27.031Z,17.71
2023-09-23T08:27:55.291Z,17.63
2023-09-23T08:30:23.358Z,17.94
2023-09-23T08:32:50.663Z,18.21
2023-09-23T08:35:17.636Z,18.62
2023-09-23T08:37:50.287Z,18.81
2023-09-23T08:40:20.658Z,18.43
2023-09-23T08:42:52.587Z,18.37
2023-09-23T08:45:27.715Z,18.44
2023-09-23T08:47:55.302Z,18.31
2023-09-23T08:50:25.045Z,18.13
2023-09-23T08:52:53.250Z,18.16
2023-09-23T08:55:22.524Z,18.17
2023-09-23T08:57:49.253Z,18.24
2023-09-23T09:00:20.213Z,18.39
2023-09-23T09:02:47.139Z,18.40
2023-09-23T09:05:15.596Z,18.57
2023-09-23T09:07:42.550Z,18.74
2023-09-23T09:10:09.725Z,18.71
2023-09-23T09:12:36.331Z,18.78
2023-09-23T09:15:03.284Z,18.88
2023-09-23T09:17:32.923Z,18.84
2023-09-23T09:20:03.268Z,18.58
2023-09-23T09:22:30.734Z,18.56
2023-09-23T09:24:57.515Z,18.54
2023-09-23T09:27:24.263Z,18.45
2023-09-23T09:29:54.550Z,18.58
2023-09-23T09:32:31.162Z,18.72
2023-09-23T09:35:02.621Z,18.50
2023-09-23T09:37:31.285Z,18.51
2023-09-23T09:39:59.224Z,18.42
2023-09-23T09:42:34.453Z,18.34
2023-09-23T09:45:02.205Z,18.42
2023-09-23T09:47:29.739Z,18.56
2023-09-23T09:49:56.824Z,18.97
2023-09-23T09:52:29.741Z,19.35
2023-09-23T09:54:59.668Z,19.52
2023-09-23T09:57:30.100Z,19.68
2023-09-23T10:00:01.263Z,19.70
2023-09-23T10:02:29.613Z,19.51
2023-09-23T10:05:03.980Z,19.02
2023-09-23T10:08:01.524Z,18.97
2023-09-23T10:10:32.866Z,19.14
2023-09-23T10:13:13.037Z,19.26
2023-09-23T10:15:41.737Z,19.55
2023-09-23T10:18:19.375Z,19.73
2023-09-23T10:20:58.721Z,19.81
2023-09-23T10:23:25.741Z,19.56
2023-09-23T10:25:53.955Z,19.72
2023-09-23T10:28:26.251Z,19.84
2023-09-23T10:31:01.391Z,20.00
2023-09-23T10:33:31.085Z,19.88
2023-09-23T10:35:59.590Z,19.90
2023-09-23T10:38:29.392Z,19.88
2023-09-23T10:40:56.637Z,19.78
2023-09-23T10:43:24.328Z,19.86
2023-09-23T10:45:54.246Z,19.86
2023-09-23T10:48:24.061Z,20.06
2023-09-23T10:50:52.563Z,19.68
2023-09-23T10:53:22.433Z,19.61
2023-09-23T10:55:53.173Z,19.43
2023-09-23T10:58:21.177Z,19.40
2023-09-23T11:00:49.660Z,19.44
2023-09-23T11:03:18.609Z,19.59
2023-09-23T11:05:46.139Z,19.56
2023-09-23T11:08:14.515Z,19.39
2023-09-23T11:10:46.047Z,19.53
2023-09-23T11:13:14.443Z,19.70
2023-09-23T11:15:44.903Z,19.62
2023-09-23T11:18:14.842Z,19.64
2023-09-23T11:20:43.842Z,19.74
2023-09-23T11:23:11.555Z,19.84
2023-09-23T11:25:46.535Z,19.93
2023-09-23T11:28:20.925Z,19.95
2023-09-23T11:30:49.244Z,19.91
2023-09-23T11:33:16.333Z,19.91
2023-09-23T11:35:43.522Z,19.84
2023-09-23T11:38:11.419Z,19.85
2023-09-23T11:40:38.995Z,19.72
2023-09-23T11:43:06.457Z,19.70
2023-09-23T11:45:36.334Z,19.57
2023-09-23T11:48:08.401Z,19.48
2023-09-23T11:50:36.579Z,19.36
2023-09-23T11:53:04.106Z,18.97
2023-09-23T11:55:33.513Z,19.13
2023-09-23T11:58:01.220Z,19.10
2023-09-23T12:00:29.855Z,19.35
2023-09-23T12:02:57.993Z,19.28
2023-09-23T12:05:31.701Z,19.17
2023-09-23T12:08:00.489Z,19.13
2023-09-23T12:10:29.121Z,19.10
2023-09-23T12:13:03.660Z,19.31
2023-09-23T12:15:32.927Z,19.48
2023-09-23T12:18:00.027Z,19.53
2023-09-23T12:20:27.955Z,19.60
2023-09-23T12:22:58.743Z,19.65
2023-09-23T12:25:26.000Z,19.66
2023-09-23T12:27:53.432Z,19.80
2023-09-23T12:30:21.342Z,19.84
2023-09-23T12:32:48.420Z,19.37
2023-09-23T12:35:15.277Z,18.97
2023-09-23T12:37:42.013Z,18.96
2023-09-23T12:40:09.277Z,18.82
2023-09-23T12:42:36.135Z,18.97
2023-09-23T12:45:06.218Z,19.13
2023-09-23T12:47:53.047Z,19.26
2023-09-23T12:50:21.920Z,19.24
2023-09-23T12:52:48.751Z,19.53
2023-09-23T12:55:15.983Z,19.69
2023-09-23T12:57:42.803Z,19.79
2023-09-23T13:00:10.015Z,19.90
2023-09-23T13:02:36.938Z,20.01
2023-09-23T13:05:04.110Z,20.12
2023-09-23T13:07:30.979Z,20.18
2023-09-23T13:09:57.709Z,20.16
2023-09-23T13:12:24.535Z,20.04
2023-09-23T13:14:51.355Z,19.73
2023-09-23T13:17:18.265Z,19.65
2023-09-23T13:19:44.905Z,19.61
2023-09-23T13:22:11.705Z,19.65
2023-09-23T13:24:38.505Z,19.59
2023-09-23T13:27:05.391Z,19.52
2023-09-23T13:29:32.977Z,19.43
2023-09-23T13:32:00.852Z,19.35
2023-09-23T13:34:27.950Z,19.32
2023-09-23T13:36:54.853Z,19.26
2023-09-23T13:39:22.614Z,19.20
2023-09-23T13:41:49.697Z,19.21
2023-09-23T13:44:17.787Z,19.18
2023-09-23T13:46:44.993Z,19.17
2023-09-23T13:49:12.014Z,18.90
2023-09-23T13:51:38.818Z,19.17
2023-09-23T13:54:05.865Z,19.14
2023-09-23T13:56:32.482Z,19.24
2023-09-23T13:58:59.326Z,19.43
2023-09-23T14:01:26.332Z,19.41
2023-09-23T14:03:53.199Z,19.37
2023-09-23T14:06:20.047Z,19.31
2023-09-23T14:08:47.132Z,19.10
2023-09-23T14:11:14.576Z,19.00
2023-09-23T14:13:41.804Z,19.24
2023-09-23T14:16:09.634Z,19.48
2023-09-23T14:18:36.782Z,19.43
2023-09-23T14:21:03.778Z,19.60
2023-09-23T14:23:31.394Z,19.55
2023-09-23T14:25:58.302Z,19.58
2023-09-23T14:28:25.265Z,19.49
2023-09-23T14:30:52.068Z,19.67
2023-09-23T14:33:18.910Z,19.64
2023-09-23T14:35:45.753Z,19.66
2023-09-23T14:38:12.567Z,19.75
2023-09-23T14:40:39.314Z,19.71
2023-09-23T14:43:06.076Z,19.35
2023-09-23T14:45:32.991Z,19.21
2023-09-23T14:47:59.949Z,19.28
2023-09-23T14:50:26.648Z,19.30
2023-09-23T14:52:53.602Z,19.27
2023-09-23T14:55:22.066Z,19.44
2023-09-23T14:57:49.497Z,19.22
2023-09-23T15:00:16.499Z,19.25
2023-09-23T15:02:44.178Z,19.34
2023-09-23T15:05:11.990Z,19.41
2023-09-23T15:07:39.212Z,19.12
2023-09-23T15:10:07.635Z,19.10
2023-09-23T15:12:36.598Z,19.27
2023-09-23T15:15:07.976Z,19.46
2023-09-23T15:17:39.546Z,19.53
2023-09-23T15:20:11.281Z,19.65
2023-09-23T15:22:39.147Z,19.74
2023-09-23T15:25:09.494Z,19.76
2023-09-23T15:27:38.304Z,19.43
2023-09-23T15:30:10.553Z,19.59
2023-09-23T15:32:38.611Z,19.49
2023-09-23T15:35:07.940Z,19.49
2023-09-23T15:37:35.044Z,19.55
2023-09-23T15:40:01.706Z,19.62
2023-09-23T15:42:29.736Z,19.59
2023-09-23T15:44:56.595Z,19.52
2023-09-23T15:47:23.353Z,19.54
2023-09-23T15:49:50.149Z,19.57
2023-09-23T15:52:17.195Z,19.55
2023-09-23T15:54:44.040Z,19.38
2023-09-23T15:57:13.772Z,19.27
2023-09-23T15:59:40.683Z,19.23
2023-09-23T16:02:07.786Z,19.20
2023-09-23T16:04:35.849Z,19.10
2023-09-23T16:07:02.665Z,18.77
2023-09-23T16:09:29.570Z,18.72
2023-09-23T16:11:56.209Z,18.83
2023-09-23T16:14:23.090Z,18.66
2023-09-23T16:16:50.305Z,18.66
2023-09-23T16:19:17.124Z,18.76
2023-09-23T16:21:44.494Z,18.74
2023-09-23T16:24:11.240Z,19.03
2023-09-23T16:26:38.041Z,19.20
2023-09-23T16:29:04.872Z,19.21
2023-09-23T16:31:31.749Z,19.35
2023-09-23T16:33:58.576Z,19.24
2023-09-23T16:36:26.163Z,18.92
2023-09-23T16:38:53.215Z,18.79
2023-09-23T16:41:19.921Z,18.57
2023-09-23T16:43:47.372Z,18.22
2023-09-23T16:46:14.201Z,18.16
2023-09-23T16:48:41.021Z,18.22
2023-09-23T16:51:09.584Z,18.16
2023-09-23T16:53:36.364Z,17.99
2023-09-23T16:56:03.254Z,18.04
2023-09-23T16:58:29.993Z,17.99
2023-09-23T17:01:01.203Z,18.41
2023-09-23T17:03:28.830Z,18.43
2023-09-23T17:05:56.183Z,18.59
2023-09-23T17:08:24.797Z,18.42
2023-09-23T17:10:51.658Z,18.39
2023-09-23T17:13:18.723Z,18.48
2023-09-23T17:15:45.620Z,18.45
2023-09-23T17:18:12.408Z,18.46
2023-09-23T17:20:39.579Z,18.33
2023-09-23T17:23:07.175Z,18.14
2023-09-23T17:25:35.641Z,17.98
2023-09-23T17:28:02.498Z,18.21
2023-09-23T17:30:29.233Z,18.34
2023-09-23T17:32:56.109Z,18.28
2023-09-23T17:35:22.984Z,18.13
2023-09-23T17:37:51.178Z,17.93
2023-09-23T17:40:19.869Z,18.06
2023-09-23T17:42:46.811Z,18.19
2023-09-23T17:45:13.931Z,18.24
2023-09-23T17:47:40.760Z,18.19
2023-09-23T17:50:08.216Z,18.28
2023-09-23T17:52:35.036Z,18.27
2023-09-23T17:55:01.998Z,18.11
2023-09-23T17:57:28.708Z,18.14
2023-09-23T17:59:56.389Z,18.18
2023-09-23T18:02:23.911Z,18.11
2023-09-23T18:04:51.979Z,17.91
2023-09-23T18:07:19.233Z,17.86
2023-09-23T18:09:46.405Z,17.87
2023-09-23T18:12:14.117Z,17.80
2023-09-23T18:14:41.211Z,17.80
2023-09-23T18:17:08.001Z,17.82
2023-09-23T18:19:37.930Z,17.90
2023-09-23T18:22:05.795Z,17.85
2023-09-23T18:24:33.786Z,17.91
2023-09-23T18:27:01.948Z,18.03
2023-09-23T18:29:29.018Z,17.96
2023-09-23T18:31:56.347Z,17.90
2023-09-23T18:34:23.247Z,18.04
2023-09-23T18:36:50.075Z,18.06
2023-09-23T18:39:16.857Z,18.08
2023-09-23T18:41:43.668Z,17.98
2023-09-23T18:44:10.633Z,17.94
2023-09-23T18:46:37.843Z,17.84
2023-09-23T18:49:04.715Z,17.64
2023-09-23T18:51:31.614Z,17.79
2023-09-23T18:53:58.690Z,17.85
2023-09-23T18:56:25.715Z,17.85
2023-09-23T18:58:52.391Z,17.68
2023-09-23T19:01:19.188Z,17.62
2023-09-23T19:03:46.170Z,17.55
2023-09-23T19:06:13.952Z,17.68
2023-09-23T19:08:42.666Z,17.51
2023-09-23T19:11:10.101Z,17.54
2023-09-23T19:13:38.118Z,17.28
2023-09-23T19:16:05.901Z,17.30
2023-09-23T19:18:33.085Z,17.49
2023-09-23T19:21:00.397Z,17.45
2023-09-23T19:23:28.542Z,17.44
2023-09-23T19:25:56.239Z,17.57
2023-09-23T19:28:26.123Z,17.73
2023-09-23T19:30:57.014Z,17.81
2023-09-23T19:33:24.363Z,17.77
2023-09-23T19:35:52.339Z,17.74
2023-09-23T19:38:19.527Z,17.86
2023-09-23T19:40:47.395Z,17.87
2023-09-23T19:43:14.154Z,17.67
2023-09-23T19:45:41.441Z,17.84
2023-09-23T19:48:08.574Z,17.78
2023-09-23T19:50:35.985Z,17.68
2023-09-23T19:53:03.301Z,17.48
2023-09-23T19:55:30.328Z,17.72
2023-09-23T19:57:57.175Z,17.68
2023-09-23T20:00:24.730Z,17.66
2023-09-23T20:02:52.143Z,17.74
2023-09-23T20:05:19.490Z,17.77
2023-09-23T20:07:46.510Z,17.55
2023-09-23T20:10:13.368Z,17.11
2023-09-23T20:12:40.646Z,17.36
2023-09-23T20:15:07.924Z,17.35
2023-09-23T20:17:37.944Z,17.28
2023-09-23T20:20:09.668Z,17.28
2023-09-23T20:22:36.472Z,17.24
2023-09-23T20:25:03.433Z,17.29
2023-09-23T20:27:31.576Z,17.18
2023-09-23T20:30:06.978Z,17.16
2023-09-23T20:32:39.448Z,17.14
2023-09-23T20:35:12.542Z,17.01
2023-09-23T20:37:41.331Z,16.82
2023-09-23T20:40:10.083Z,16.98
2023-09-23T20:42:37.101Z,17.01
2023-09-23T20:45:05.493Z,16.98
2023-09-23T20:47:33.204Z,17.07
2023-09-23T20:50:01.075Z,17.00
2023-09-23T20:52:27.887Z,17.00
2023-09-23T20:54:55.155Z,17.03
2023-09-23T20:57:21.981Z,17.01
2023-09-23T20:59:49.439Z,17.06
2023-09-23T21:02:17.733Z,17.17
2023-09-23T21:04:49.411Z,17.19
2023-09-23T21:07:18.432Z,17.23
2023-09-23T21:09:45.255Z,17.08
2023-09-23T21:12:12.063Z,17.02
2023-09-23T21:14:39.182Z,17.00
2023-09-23T21:17:06.027Z,17.06
2023-09-23T21:19:32.824Z,16.80
2023-09-23T21:21:59.803Z,16.80
2023-09-23T21:24:26.365Z,16.70
2023-09-23T21:26:53.295Z,16.78
2023-09-23T21:29:20.046Z,16.82
2023-09-23T21:31:47.049Z,16.83
2023-09-23T21:34:13.805Z,16.77
2023-09-23T21:36:41.091Z,16.59
2023-09-23T21:39:08.121Z,16.53
2023-09-23T21:41:34.837Z,16.43
2023-09-23T21:44:01.699Z,16.88
2023-09-23T21:46:29.066Z,16.87
2023-09-23T21:48:55.815Z,16.74
2023-09-23T21:51:22.651Z,16.67
2023-09-23T21:53:49.763Z,16.79
2023-09-23T21:56:23.938Z,16.74
2023-09-23T21:58:56.893Z,16.53
2023-09-23T22:01:26.339Z,16.27
2023-09-23T22:03:53.691Z,16.21
2023-09-23T22:06:20.766Z,16.25
2023-09-23T22:08:49.867Z,16.31
2023-09-23T22:11:16.738Z,16.28
2023-09-23T22:13:43.579Z,16.15
2023-09-23T22:16:10.543Z,16.44
2023-09-23T22:18:37.236Z,16.49
2023-09-23T22:21:04.051Z,16.32
2023-09-23T22:23:30.881Z,16.43
2023-09-23T22:25:59.112Z,16.68
2023-09-23T22:28:25.999Z,16.73
2023-09-23T22:30:52.822Z,16.69
2023-09-23T22:33:19.733Z,16.78
2023-09-23T22:35:48.536Z,16.98
2023-09-23T22:38:16.784Z,17.02
2023-09-23T22:40:43.646Z,17.09
2023-09-23T22:43:10.587Z,16.76
2023-09-23T22:45:39.859Z,16.75
2023-09-23T22:48:08.577Z,16.84
2023-09-23T22:50:35.769Z,16.62
2023-09-23T22:53:03.610Z,16.54
2023-09-23T22:55:30.336Z,16.94
2023-09-23T22:57:59.522Z,17.04
2023-09-23T23:00:29.116Z,16.96
2023-09-23T23:02:57.784Z,16.83
2023-09-23T23:05:27.055Z,16.54
2023-09-23T23:07:54.854Z,16.51
2023-09-23T23:10:21.424Z,16.70
2023-09-23T23:12:48.709Z,16.44
2023-09-23T23:15:17.500Z,16.43
2023-09-23T23:17:47.039Z,16.69
2023-09-23T23:20:22.627Z,17.02
2023-09-23T23:22:54.369Z,16.93
2023-09-23T23:25:22.039Z,16.94
2023-09-23T23:27:49.065Z,16.94
2023-09-23T23:30:17.762Z,16.88
2023-09-23T23:32:45.655Z,16.87
2023-09-23T23:35:12.443Z,16.74
2023-09-23T23:37:39.367Z,16.65
2023-09-23T23:40:07.382Z,16.70
2023-09-23T23:42:41.542Z,16.77
2023-09-23T23:45:08.892Z,17.02
2023-09-23T23:47:35.723Z,17.11
2023-09-23T23:50:04.009Z,17.11
2023-09-23T23:52:31.045Z,17.14
2023-09-23T23:54:58.379Z,17.18
2023-09-23T23:57:26.199Z,16.86
2023-09-23T23:59:53.780Z,16.71
